Time;durP1;ratioP1;P1;durP2;ratioP2;P2;SDS_P1;SDS_P2;PMS_P1;PMS_P2;Temp;Humidity;BMP_temperature;BMP_pressure;BME280_temperature;BME280_humidity;BME280_pressure;Samples;Min_cycle;Max_cycle;Signal;HPM_P1;HPM_P2
2022/01/22 00:08:43;;;;;;;0.20;0.10;;;6.10;99.90;;;;;;25583804;23;20274;-64
2022/01/22 00:18:48;;;;;;;0.20;0.10;;;6.00;99.90;;;;;;25583071;23;20197;-65
2022/01/22 00:28:52;;;;;;;0.20;0.10;;;5.80;99.90;;;;;;25582788;23;20272;-65
2022/01/22 00:38:57;;;;;;;0.20;0.00;;;5.50;99.90;;;;;;25582463;23;20196;-66
2022/01/22 00:49:02;;;;;;;0.20;0.10;;;5.70;99.90;;;;;;25584294;23;20257;-65
2022/01/22 00:59:07;;;;;;;0.20;0.03;;;5.80;99.90;;;;;;25583430;23;20202;-69
2022/01/22 01:09:12;;;;;;;0.20;0.10;;;5.80;99.90;;;;;;25581721;23;20284;-69
2022/01/22 01:40:07;;;;;;;0.57;0.53;;;5.60;99.90;;;;;;25553275;23;20194;-64
2022/01/22 01:50:11;;;;;;;0.20;0.10;;;5.50;99.90;;;;;;25582196;23;20708;-63
2022/01/22 02:00:21;;;;;;;0.20;0.10;;;5.30;99.90;;;;;;25581171;23;20206;-63
2022/01/22 02:10:28;;;;;;;0.20;0.07;;;5.00;99.90;;;;;;25580138;23;20200;-64
2022/01/22 02:31:04;;;;;;;0.20;0.10;;;5.00;99.90;;;;;;25584821;23;20253;-69
2022/01/22 02:41:13;;;;;;;0.20;0.10;;;5.10;99.90;;;;;;25585664;23;20220;-71
2022/01/22 02:51:18;;;;;;;0.40;0.40;;;5.10;99.90;;;;;;25587498;23;20258;-69
2022/01/22 03:01:23;;;;;;;0.20;0.10;;;5.10;99.90;;;;;;25593299;23;20699;-70
2022/01/22 03:11:40;;;;;;;0.20;0.10;;;4.90;99.90;;;;;;25593743;23;20562;-70
2022/01/22 03:21:57;;;;;;;0.20;0.10;;;4.90;99.90;;;;;;25593203;23;20278;-70
2022/01/22 03:32:02;;;;;;;0.20;0.10;;;4.90;99.90;;;;;;25591805;23;20256;-70
2022/01/22 03:42:07;;;;;;;0.20;0.10;;;4.90;99.90;;;;;;25591663;23;20284;-70
2022/01/22 03:52:12;;;;;;;0.20;0.10;;;4.90;99.90;;;;;;25591432;23;20178;-71
2022/01/22 04:02:57;;;;;;;0.30;0.30;;;4.60;99.90;;;;;;25590063;23;20289;-71
2022/01/22 04:13:03;;;;;;;0.20;0.10;;;4.60;99.90;;;;;;25562634;23;20248;-71
2022/01/22 04:33:30;;;;;;;0.20;0.10;;;5.20;99.90;;;;;;25589241;23;20979;-71
2022/01/22 04:43:37;;;;;;;0.20;0.10;;;5.20;99.90;;;;;;25561443;23;20824;-65
2022/01/22 05:04:03;;;;;;;0.20;0.10;;;5.30;99.90;;;;;;25587147;23;20292;-66
2022/01/22 05:14:08;;;;;;;0.20;0.10;;;5.30;99.90;;;;;;25587696;23;20253;-66
2022/01/22 05:24:17;;;;;;;3.30;3.10;;;5.20;99.90;;;;;;25561118;23;20275;-64
2022/01/22 05:44:43;;;;;;;0.20;0.10;;;4.90;99.90;;;;;;25585700;23;20229;-75
2022/01/22 05:55:09;;;;;;;0.83;0.83;;;4.80;99.90;;;;;;25587306;23;20222;-75
2022/01/22 06:05:13;;;;;;;0.20;0.10;;;4.80;99.90;;;;;;25586420;23;20225;-73
2022/01/22 06:15:19;;;;;;;0.20;0.10;;;4.80;99.90;;;;;;25557870;23;20194;-65
2022/01/22 06:25:24;;;;;;;0.20;0.10;;;4.60;99.90;;;;;;25584267;23;20556;-67
2022/01/22 06:35:29;;;;;;;0.20;0.10;;;4.60;99.90;;;;;;25584484;23;20618;-65
2022/01/22 06:45:33;;;;;;;0.20;0.20;;;4.40;99.90;;;;;;25585437;23;20251;-72
2022/01/22 06:55:42;;;;;;;0.20;0.10;;;4.40;99.90;;;;;;25582843;23;20279;-73
2022/01/22 07:05:45;;;;;;;0.20;0.10;;;4.40;99.90;;;;;;25584367;23;20703;-75
2022/01/22 07:15:55;;;;;;;0.20;0.10;;;4.30;99.90;;;;;;25582877;23;20193;-75
2022/01/22 07:25:59;;;;;;;0.20;0.10;;;4.20;99.90;;;;;;25584140;23;20628;-76
2022/01/22 07:36:05;;;;;;;0.57;0.57;;;4.10;99.90;;;;;;25584034;23;20265;-77
2022/01/22 07:46:09;;;;;;;0.30;0.30;;;4.10;99.90;;;;;;25588971;23;20193;-77
2022/01/22 07:56:15;;;;;;;0.20;0.10;;;4.20;99.90;;;;;;25591236;23;20595;-76
2022/01/22 08:06:18;;;;;;;0.20;0.10;;;4.30;99.90;;;;;;25585683;23;20289;-75
2022/01/22 08:16:25;;;;;;;0.20;0.20;;;4.70;99.90;;;;;;25586914;23;20272;-67
2022/01/22 08:26:33;;;;;;;0.20;0.10;;;4.90;99.90;;;;;;25584859;23;20175;-68
2022/01/22 08:36:39;;;;;;;0.20;0.10;;;5.30;99.90;;;;;;25585052;23;20571;-66
2022/01/22 08:46:43;;;;;;;0.20;0.20;;;5.60;99.90;;;;;;25580217;23;20212;-67
2022/01/22 08:56:48;;;;;;;3.20;0.87;;;5.80;99.90;;;;;;25580705;23;20249;-69
2022/01/22 09:06:52;;;;;;;0.20;0.10;;;6.10;99.90;;;;;;25582704;23;20278;-66
2022/01/22 09:16:58;;;;;;;0.20;0.00;;;6.20;99.90;;;;;;25582253;23;20616;-66
2022/01/22 09:27:05;;;;;;;0.20;0.00;;;6.50;99.90;;;;;;25584128;23;20608;-67
2022/01/22 09:37:10;;;;;;;0.20;0.10;;;7.00;99.90;;;;;;25581757;23;20221;-73
2022/01/22 09:47:17;;;;;;;0.20;0.10;;;7.40;99.90;;;;;;25580437;23;20264;-73
2022/01/22 09:57:22;;;;;;;0.20;0.10;;;7.80;99.90;;;;;;25579700;23;20190;-73
2022/01/22 10:07:26;;;;;;;0.20;0.00;;;7.90;99.90;;;;;;25579326;23;20201;-74
2022/01/22 10:17:47;;;;;;;0.20;0.10;;;8.40;99.90;;;;;;25577860;23;20272;-74
2022/01/22 10:27:56;;;;;;;0.20;0.10;;;8.80;99.90;;;;;;25578046;23;20270;-74
2022/01/22 10:38:03;;;;;;;0.20;0.10;;;9.70;99.90;;;;;;25579731;23;20277;-78
2022/01/22 10:48:20;;;;;;;0.20;0.10;;;10.70;99.90;;;;;;25582538;23;20162;-77
2022/01/22 10:58:26;;;;;;;0.20;0.10;;;11.00;99.90;;;;;;25581057;23;20627;-75
2022/01/22 11:08:29;;;;;;;1.07;1.07;;;11.60;99.90;;;;;;25578230;23;20659;-73
2022/01/22 11:18:35;;;;;;;0.20;0.10;;;11.20;99.90;;;;;;25584140;23;20277;-74
2022/01/22 11:28:40;;;;;;;0.40;0.40;;;11.80;99.90;;;;;;25586765;23;20548;-73
2022/01/22 11:38:54;;;;;;;0.20;0.10;;;12.40;99.90;;;;;;25590379;23;20648;-67
2022/01/22 11:49:13;;;;;;;0.37;0.37;;;13.00;99.90;;;;;;25587105;23;20197;-68
2022/01/22 11:59:29;;;;;;;0.20;0.10;;;13.20;99.90;;;;;;25585838;23;20573;-67
2022/01/22 12:09:41;;;;;;;0.20;0.10;;;12.90;99.90;;;;;;25584489;23;20400;-69
2022/01/22 12:19:53;;;;;;;0.40;0.40;;;13.20;99.90;;;;;;25582122;23;20608;-68
2022/01/22 12:30:01;;;;;;;0.20;0.10;;;13.30;99.90;;;;;;25579535;23;20257;-68
2022/01/22 12:40:08;;;;;;;0.20;0.10;;;14.30;99.90;;;;;;25585647;23;20193;-69
2022/01/22 12:50:13;;;;;;;0.20;0.10;;;14.90;99.90;;;;;;25586500;23;20159;-67
2022/01/22 13:00:20;;;;;;;0.63;0.30;;;15.20;99.90;;;;;;25581207;23;20708;-68
2022/01/22 13:10:32;;;;;;;0.20;0.00;;;15.50;99.90;;;;;;25582562;23;20316;-66
2022/01/22 13:20:37;;;;;;;3.60;0.67;;;15.70;99.90;;;;;;25583343;23;20272;-69
2022/01/22 13:30:47;;;;;;;0.20;0.10;;;15.80;99.90;;;;;;25586194;23;20431;-75
2022/01/22 13:51:20;;;;;;;0.20;0.10;;;15.70;99.90;;;;;;25585852;23;20284;-73
2022/01/22 14:01:39;;;;;;;0.20;0.10;;;15.70;99.90;;;;;;25586228;23;20556;-77
2022/01/22 14:12:11;;;;;;;0.20;0.10;;;15.70;99.90;;;;;;25583670;23;20200;-77
2022/01/22 14:22:16;;;;;;;1.20;1.20;;;17.10;99.90;;;;;;25586601;23;20234;-77
2022/01/22 14:32:20;;;;;;;0.50;0.50;;;17.20;99.90;;;;;;25583938;23;20553;-67
2022/01/22 14:53:01;;;;;;;0.20;0.10;;;17.20;99.90;;;;;;25588166;23;20177;-67
2022/01/22 16:14:21;;;;;;;0.20;0.10;;;14.80;99.90;;;;;;25587237;23;20166;-76
2022/01/22 16:24:25;;;;;;;0.30;0.30;;;14.40;99.90;;;;;;25588801;23;20264;-78
2022/01/22 16:34:31;;;;;;;0.20;0.10;;;13.30;99.90;;;;;;25588560;23;20261;-76
2022/01/22 16:44:41;;;;;;;0.20;0.10;;;12.40;99.90;;;;;;25587812;23;20680;-77
2022/01/22 16:54:49;;;;;;;0.20;0.10;;;11.20;99.90;;;;;;25589935;23;20278;-78
2022/01/22 17:04:59;;;;;;;0.50;0.50;;;10.10;99.90;;;;;;25586882;23;20570;-78
2022/01/22 17:15:05;;;;;;;0.20;0.10;;;9.60;99.90;;;;;;25585500;23;20605;-77
2022/01/22 17:25:09;;;;;;;0.20;0.10;;;8.90;99.90;;;;;;25586784;23;20561;-76
2022/01/22 17:35:14;;;;;;;0.20;0.10;;;8.40;99.90;;;;;;25587206;23;20245;-68
2022/01/22 17:45:20;;;;;;;0.50;0.50;;;8.10;99.90;;;;;;25585861;23;20794;-67
2022/01/22 17:55:25;;;;;;;0.20;0.00;;;7.90;99.90;;;;;;25585878;23;20659;-68
2022/01/22 18:05:29;;;;;;;0.20;0.10;;;7.70;99.90;;;;;;25582896;23;20285;-67
2022/01/22 18:15:34;;;;;;;0.20;0.00;;;7.30;99.90;;;;;;25572507;23;20280;-68
2022/01/22 18:25:38;;;;;;;0.20;0.03;;;7.10;99.90;;;;;;25579925;23;20194;-67
2022/01/22 18:35:44;;;;;;;1.50;1.40;;;6.90;99.90;;;;;;25579942;23;20170;-67
2022/01/22 18:45:51;;;;;;;0.20;0.10;;;6.70;99.90;;;;;;25577442;23;20230;-67
2022/01/22 18:55:57;;;;;;;0.20;0.10;;;6.70;99.90;;;;;;25574137;23;20171;-66
2022/01/22 19:06:01;;;;;;;0.20;0.13;;;6.60;99.90;;;;;;25574734;23;20209;-67
2022/01/22 19:16:07;;;;;;;0.20;0.20;;;6.20;99.90;;;;;;25578115;23;20205;-67
2022/01/22 19:26:37;;;;;;;0.20;0.10;;;6.30;99.90;;;;;;25579994;23;20263;-74
2022/01/22 19:36:43;;;;;;;0.20;0.10;;;6.50;99.90;;;;;;25582940;23;20194;-67
2022/01/22 19:46:47;;;;;;;0.20;0.00;;;6.60;99.90;;;;;;25585731;23;20589;-67
2022/01/22 19:56:52;;;;;;;0.20;0.00;;;6.80;99.90;;;;;;25579225;23;20181;-66
2022/01/22 20:06:56;;;;;;;0.20;0.00;;;6.80;99.90;;;;;;25581760;23;20534;-67
2022/01/22 20:17:02;;;;;;;0.23;0.23;;;7.10;99.90;;;;;;25584726;23;20273;-66
2022/01/22 20:27:05;;;;;;;0.20;0.10;;;7.10;99.90;;;;;;25576493;23;20619;-66
2022/01/22 20:37:11;;;;;;;0.20;0.10;;;7.00;99.90;;;;;;25584112;23;20265;-74
2022/01/22 20:47:16;;;;;;;0.20;0.10;;;6.90;99.90;;;;;;25584415;23;20254;-74
2022/01/22 20:57:25;;;;;;;4.80;2.67;;;6.90;99.90;;;;;;25584135;23;20193;-75
2022/01/22 21:07:29;;;;;;;1.20;1.17;;;6.80;99.90;;;;;;25582625;23;20273;-74
2022/01/22 21:17:34;;;;;;;0.20;0.10;;;6.70;99.90;;;;;;25581919;23;20214;-74
2022/01/22 21:27:38;;;;;;;0.20;0.10;;;6.60;99.90;;;;;;25582589;23;20257;-67
2022/01/22 21:38:08;;;;;;;0.20;0.10;;;6.40;99.90;;;;;;25580976;23;20185;-67
2022/01/22 21:48:32;;;;;;;0.20;0.10;;;6.20;99.90;;;;;;25581666;23;20182;-66
2022/01/22 21:58:39;;;;;;;0.20;0.10;;;6.40;99.90;;;;;;25581754;23;20675;-66
2022/01/22 22:08:43;;;;;;;0.20;0.10;;;6.20;99.90;;;;;;25578819;23;20289;-66
2022/01/22 22:18:48;;;;;;;0.20;0.10;;;6.20;99.90;;;;;;25580386;23;20252;-66
2022/01/22 22:28:53;;;;;;;0.77;0.77;;;6.20;99.90;;;;;;25581060;23;20170;-67
2022/01/22 22:38:58;;;;;;;0.20;0.10;;;6.10;99.90;;;;;;25579824;23;20182;-76
2022/01/22 22:49:03;;;;;;;0.77;0.77;;;6.00;99.90;;;;;;25581137;23;20185;-77
2022/01/22 22:59:08;;;;;;;0.20;0.00;;;6.10;99.90;;;;;;25579572;23;20277;-65
2022/01/22 23:09:12;;;;;;;0.20;0.10;;;5.90;99.90;;;;;;25581894;23;20666;-65
2022/01/22 23:29:39;;;;;;;0.20;0.10;;;5.80;99.90;;;;;;25588038;23;21025;-75
